createdAt,value
2018-09-12T00:00:10.838Z,89.30
2018-09-12T00:02:39.313Z,89.40
2018-09-12T00:05:07.890Z,89.50
2018-09-12T00:07:36.452Z,89.70
2018-09-12T00:10:05.000Z,89.70
2018-09-12T00:12:33.549Z,89.80
2018-09-12T00:15:02.021Z,89.90
2018-09-12T00:17:30.530Z,90.20
2018-09-12T00:19:59.016Z,90.00
2018-09-12T00:22:27.484Z,90.00
2018-09-12T00:24:56.256Z,90.10
2018-09-12T00:27:24.810Z,90.10
2018-09-12T00:29:53.225Z,90.00
2018-09-12T00:32:21.781Z,90.10
2018-09-12T00:34:50.389Z,90.10
2018-09-12T00:37:18.890Z,90.10
2018-09-12T00:39:47.402Z,90.10
2018-09-12T00:42:16.231Z,90.20
2018-09-12T00:44:44.725Z,90.30
2018-09-12T00:47:13.141Z,90.40
2018-09-12T00:49:41.569Z,90.40
2018-09-12T00:52:10.081Z,90.40
2018-09-12T00:54:38.623Z,90.50
2018-09-12T00:57:07.050Z,90.60
2018-09-12T00:59:35.565Z,90.80
2018-09-12T01:02:04.197Z,90.90
2018-09-12T01:04:32.688Z,91.30
2018-09-12T01:07:01.202Z,91.30
2018-09-12T01:09:29.722Z,91.30
2018-09-12T01:11:58.344Z,91.50
2018-09-12T01:14:30.985Z,91.70
2018-09-12T01:16:59.849Z,91.70
2018-09-12T01:19:28.968Z,91.90
2018-09-12T01:21:57.390Z,91.50
2018-09-12T01:24:25.908Z,92.00
2018-09-12T01:26:54.288Z,92.00
2018-09-12T01:29:24.800Z,91.90
2018-09-12T01:31:53.297Z,91.80
2018-09-12T01:34:21.897Z,92.30
2018-09-12T01:36:50.445Z,92.10
2018-09-12T01:39:18.908Z,92.10
2018-09-12T01:41:47.333Z,92.00
2018-09-12T01:44:15.805Z,92.10
2018-09-12T01:46:44.277Z,91.90
2018-09-12T01:49:16.862Z,92.00
2018-09-12T01:51:46.158Z,91.90
2018-09-12T01:54:15.065Z,92.10
2018-09-12T01:56:43.536Z,92.20
2018-09-12T01:59:12.429Z,92.10
2018-09-12T02:01:43.237Z,92.60
2018-09-12T02:04:11.756Z,92.40
2018-09-12T02:06:40.590Z,92.40
2018-09-12T02:09:14.043Z,92.70
2018-09-12T02:11:42.627Z,92.70
2018-09-12T02:14:11.169Z,92.80
2018-09-12T02:16:39.905Z,92.60
2018-09-12T02:19:08.460Z,92.60
2018-09-12T02:21:36.938Z,92.70
2018-09-12T02:24:05.447Z,92.60
2018-09-12T02:26:33.836Z,92.90
2018-09-12T02:29:02.225Z,93.00
2018-09-12T02:31:30.832Z,93.10
2018-09-12T02:33:59.303Z,93.00
2018-09-12T02:36:28.772Z,93.00
2018-09-12T02:38:58.714Z,93.20
2018-09-12T02:41:27.139Z,93.10
2018-09-12T02:43:55.936Z,93.10
2018-09-12T02:46:24.437Z,93.00
2018-09-12T02:48:53.132Z,93.00
2018-09-12T02:51:21.558Z,92.90
2018-09-12T02:53:50.072Z,93.00
2018-09-12T02:56:18.949Z,92.90
2018-09-12T02:58:47.667Z,93.00
2018-09-12T03:01:16.064Z,93.00
2018-09-12T03:03:44.719Z,93.10
2018-09-12T03:06:13.333Z,93.20
2018-09-12T03:08:41.877Z,93.20
2018-09-12T03:11:10.328Z,93.10
2018-09-12T03:13:38.738Z,93.20
2018-09-12T03:16:07.193Z,93.10
2018-09-12T03:18:35.641Z,93.20
2018-09-12T03:21:04.294Z,93.40
2018-09-12T03:23:32.488Z,93.30
2018-09-12T03:26:00.896Z,93.00
2018-09-12T03:28:29.418Z,92.30
2018-09-12T03:30:58.223Z,92.10
2018-09-12T03:33:26.673Z,91.90
2018-09-12T03:35:55.066Z,91.90
2018-09-12T03:38:23.637Z,91.70
2018-09-12T03:40:52.116Z,91.70
2018-09-12T03:43:20.574Z,91.70
2018-09-12T03:45:49.070Z,91.70
2018-09-12T03:48:17.513Z,91.90
2018-09-12T03:50:46.044Z,91.80
2018-09-12T03:53:14.800Z,91.50
2018-09-12T03:55:43.274Z,91.80
2018-09-12T03:58:11.729Z,91.80
2018-09-12T04:00:40.242Z,91.70
2018-09-12T04:03:08.663Z,91.30
2018-09-12T04:05:37.105Z,91.30
2018-09-12T04:08:05.653Z,91.50
2018-09-12T04:10:34.112Z,91.70
2018-09-12T04:13:02.618Z,91.40
2018-09-12T04:15:31.098Z,91.50
2018-09-12T04:17:59.500Z,91.80
2018-09-12T04:20:27.989Z,91.10
2018-09-12T04:22:56.597Z,91.40
2018-09-12T04:25:24.989Z,91.40
2018-09-12T04:27:53.432Z,91.50
2018-09-12T04:30:21.833Z,91.40
2018-09-12T04:32:50.244Z,91.40
2018-09-12T04:35:18.655Z,91.40
2018-09-12T04:37:47.189Z,91.40
2018-09-12T04:40:16.376Z,91.60
2018-09-12T04:42:44.947Z,91.60
2018-09-12T04:45:13.381Z,91.50
2018-09-12T04:47:41.834Z,91.60
2018-09-12T04:50:10.312Z,91.70
2018-09-12T04:52:38.807Z,91.60
2018-09-12T04:55:07.904Z,91.80
2018-09-12T04:57:36.347Z,91.80
2018-09-12T05:00:04.895Z,91.70
2018-09-12T05:02:33.797Z,91.80
2018-09-12T05:05:02.210Z,91.50
2018-09-12T05:07:30.609Z,91.90
2018-09-12T05:09:59.114Z,91.90
2018-09-12T05:12:27.820Z,92.00
2018-09-12T05:14:56.305Z,91.80
2018-09-12T05:17:24.733Z,91.70
2018-09-12T05:19:53.136Z,91.50
2018-09-12T05:22:21.704Z,91.30
2018-09-12T05:24:50.489Z,91.40
2018-09-12T05:27:19.371Z,90.90
2018-09-12T05:32:37.145Z,91.20
2018-09-12T05:35:05.703Z,91.60
2018-09-12T05:37:40.599Z,91.40
2018-09-12T05:40:09.457Z,91.70
2018-09-12T05:42:37.949Z,91.90
2018-09-12T05:45:06.509Z,91.80
2018-09-12T05:47:34.952Z,91.80
2018-09-12T05:50:03.499Z,91.80
2018-09-12T05:52:31.948Z,91.80
2018-09-12T05:55:00.401Z,91.50
2018-09-12T05:57:28.771Z,91.50
2018-09-12T05:59:57.268Z,91.50
2018-09-12T06:02:25.849Z,91.70
2018-09-12T06:04:54.286Z,91.70
2018-09-12T06:07:27.090Z,91.70
2018-09-12T06:09:55.706Z,91.90
2018-09-12T06:12:27.439Z,92.00
2018-09-12T06:14:57.260Z,91.30
2018-09-12T06:17:34.673Z,92.00
2018-09-12T06:20:11.410Z,91.40
2018-09-12T06:22:46.263Z,91.70
2018-09-12T06:25:17.687Z,91.80
2018-09-12T06:27:46.167Z,91.80
2018-09-12T06:30:14.717Z,91.40
2018-09-12T06:32:43.224Z,91.90
2018-09-12T06:35:11.771Z,92.10
2018-09-12T06:37:40.246Z,92.10
2018-09-12T06:40:09.440Z,92.20
2018-09-12T06:42:37.921Z,92.30
2018-09-12T06:45:06.369Z,92.40
2018-09-12T06:47:34.844Z,92.10
2018-09-12T06:50:03.364Z,92.40
2018-09-12T06:52:31.836Z,92.40
2018-09-12T06:55:00.282Z,92.20
2018-09-12T06:57:28.844Z,92.20
2018-09-12T06:59:57.317Z,91.90
2018-09-12T07:02:25.831Z,92.00
2018-09-12T07:04:54.358Z,92.00
2018-09-12T07:07:22.846Z,91.90
2018-09-12T07:09:51.384Z,92.10
2018-09-12T07:12:19.845Z,92.30
2018-09-12T07:14:48.337Z,92.40
2018-09-12T07:17:16.754Z,92.00
2018-09-12T07:19:45.198Z,92.00
2018-09-12T07:22:13.748Z,92.00
2018-09-12T07:24:42.215Z,91.90
2018-09-12T07:27:10.711Z,91.90
2018-09-12T07:29:39.240Z,91.80
2018-09-12T07:32:09.181Z,91.90
2018-09-12T07:34:37.637Z,91.70
2018-09-12T07:37:06.195Z,91.60
2018-09-12T07:39:34.812Z,91.60
2018-09-12T07:42:03.554Z,91.60
2018-09-12T07:44:32.005Z,91.90
2018-09-12T07:47:00.679Z,92.10
2018-09-12T07:49:29.241Z,92.20
2018-09-12T07:51:57.801Z,92.10
2018-09-12T07:54:26.284Z,91.80
2018-09-12T07:56:54.852Z,91.60
2018-09-12T07:59:23.318Z,91.90
2018-09-12T08:01:52.664Z,92.10
2018-09-12T08:04:21.173Z,92.30
2018-09-12T08:06:49.738Z,92.40
2018-09-12T08:09:18.209Z,92.30
2018-09-12T08:11:46.777Z,92.30
2018-09-12T08:14:15.380Z,92.40
2018-09-12T08:16:43.815Z,92.30
2018-09-12T08:19:12.344Z,92.00
2018-09-12T08:21:41.314Z,91.70
2018-09-12T08:24:10.060Z,92.30
2018-09-12T08:26:38.622Z,92.30
2018-09-12T08:29:07.082Z,92.30
2018-09-12T08:31:35.509Z,92.50
2018-09-12T08:34:04.049Z,92.10
2018-09-12T08:36:32.710Z,92.30
2018-09-12T08:39:01.059Z,92.20
2018-09-12T08:41:29.813Z,92.20
2018-09-12T08:43:58.271Z,92.00
2018-09-12T08:46:26.755Z,91.80
2018-09-12T08:48:55.289Z,92.40
2018-09-12T08:51:23.818Z,92.40
2018-09-12T08:53:52.394Z,92.40
2018-09-12T08:56:20.817Z,92.60
2018-09-12T08:58:49.650Z,92.90
2018-09-12T09:01:18.223Z,92.70
2018-09-12T09:03:46.756Z,92.30
2018-09-12T09:06:15.262Z,92.90
2018-09-12T09:08:44.043Z,93.10
2018-09-12T09:11:12.643Z,93.00
2018-09-12T09:13:41.136Z,92.90
2018-09-12T09:16:09.637Z,93.00
2018-09-12T09:18:38.131Z,92.90
2018-09-12T09:21:06.739Z,92.90
2018-09-12T09:23:35.174Z,92.90
2018-09-12T09:26:03.625Z,92.90
2018-09-12T09:28:32.141Z,92.80
2018-09-12T09:31:00.726Z,92.60
2018-09-12T09:33:29.247Z,92.60
2018-09-12T09:35:57.786Z,92.70
2018-09-12T09:38:26.185Z,92.60
2018-09-12T09:40:54.662Z,92.50
2018-09-12T09:43:24.373Z,92.50
2018-09-12T09:45:53.037Z,92.30
2018-09-12T09:48:44.237Z,92.40
2018-09-12T09:51:12.839Z,92.20
2018-09-12T09:53:41.750Z,92.20
2018-09-12T09:56:12.077Z,92.20
2018-09-12T09:58:40.768Z,91.70
2018-09-12T10:01:14.553Z,90.80
2018-09-12T10:03:48.310Z,91.80
2018-09-12T10:06:20.992Z,91.40
2018-09-12T10:08:54.983Z,92.20
2018-09-12T10:11:23.692Z,91.70
2018-09-12T10:13:52.721Z,91.00
2018-09-12T10:16:21.883Z,91.50
2018-09-12T10:18:50.664Z,91.80
2018-09-12T10:21:19.278Z,91.60
2018-09-12T10:23:47.775Z,91.70
2018-09-12T10:26:16.450Z,91.70
2018-09-12T10:28:45.002Z,91.50
2018-09-12T10:31:13.516Z,91.90
2018-09-12T10:33:42.304Z,91.90
2018-09-12T10:36:10.985Z,91.30
2018-09-12T10:38:39.516Z,91.40
2018-09-12T10:41:08.058Z,91.70
2018-09-12T10:43:36.756Z,91.90
2018-09-12T10:46:05.226Z,91.20
2018-09-12T10:48:33.630Z,91.50
2018-09-12T10:51:02.116Z,91.60
2018-09-12T10:53:30.718Z,91.70
2018-09-12T10:55:59.263Z,91.90
2018-09-12T10:58:27.776Z,91.90
2018-09-12T11:00:56.241Z,91.90
2018-09-12T11:03:24.775Z,92.10
2018-09-12T11:05:53.181Z,92.20
2018-09-12T11:08:21.664Z,92.00
2018-09-12T11:10:50.160Z,92.20
2018-09-12T11:13:22.018Z,92.30
2018-09-12T11:15:50.560Z,91.30
2018-09-12T11:18:19.282Z,92.00
2018-09-12T11:20:47.806Z,91.90
2018-09-12T11:23:16.285Z,91.80
2018-09-12T11:25:44.710Z,92.20
2018-09-12T11:28:13.126Z,92.20
2018-09-12T11:30:43.131Z,92.30
2018-09-12T11:33:11.759Z,92.20
2018-09-12T11:35:40.202Z,92.10
2018-09-12T11:38:08.708Z,91.40
2018-09-12T11:40:37.185Z,91.20
2018-09-12T11:43:05.668Z,91.60
2018-09-12T11:45:34.149Z,91.90
2018-09-12T11:48:02.594Z,91.80
2018-09-12T11:50:31.042Z,91.90
2018-09-12T11:52:59.526Z,92.00
2018-09-12T11:55:28.245Z,92.10
2018-09-12T11:57:56.720Z,92.30
2018-09-12T12:00:25.142Z,92.20
2018-09-12T12:02:53.623Z,92.20
2018-09-12T12:05:22.451Z,91.30
2018-09-12T12:07:51.811Z,91.60
2018-09-12T12:10:20.249Z,91.30
2018-09-12T12:12:48.796Z,91.10
2018-09-12T12:15:17.321Z,91.10
2018-09-12T12:17:45.869Z,91.30
2018-09-12T12:20:14.353Z,91.60
2018-09-12T12:22:42.878Z,91.30
2018-09-12T12:25:11.959Z,91.70
2018-09-12T12:27:40.709Z,91.50
2018-09-12T12:30:09.282Z,91.90
2018-09-12T12:32:42.659Z,91.90
2018-09-12T12:35:12.187Z,91.70
2018-09-12T12:37:40.596Z,91.10
2018-09-12T12:40:09.237Z,91.90
2018-09-12T12:42:37.809Z,92.00
2018-09-12T12:45:06.332Z,91.50
2018-09-12T12:47:34.876Z,90.50
2018-09-12T12:50:04.114Z,91.00
2018-09-12T12:52:32.813Z,91.60
2018-09-12T12:55:01.339Z,90.70
2018-09-12T12:57:30.105Z,90.80
2018-09-12T13:00:13.940Z,91.40
2018-09-12T13:02:42.504Z,91.40
2018-09-12T13:05:13.405Z,91.20
2018-09-12T13:07:41.937Z,91.20
2018-09-12T13:10:10.667Z,91.00
2018-09-12T13:12:39.890Z,90.50
2018-09-12T13:15:08.382Z,90.40
2018-09-12T13:17:36.974Z,89.40
2018-09-12T13:20:06.332Z,89.50
2018-09-12T13:22:35.237Z,89.90
2018-09-12T13:25:04.777Z,90.50
2018-09-12T13:27:33.234Z,90.10
2018-09-12T13:35:25.228Z,90.60
2018-09-12T13:37:54.692Z,90.60
2018-09-12T13:40:23.381Z,90.40
2018-09-12T13:42:51.981Z,90.50
2018-09-12T13:45:20.408Z,90.30
2018-09-12T13:47:48.772Z,90.10
2018-09-12T13:50:17.579Z,89.10
2018-09-12T13:52:47.417Z,90.00
2018-09-12T13:55:15.986Z,90.40
2018-09-12T13:57:44.797Z,90.20
2018-09-12T14:00:13.286Z,90.20
2018-09-12T14:02:56.045Z,90.30
2018-09-12T14:05:28.446Z,89.90
2018-09-12T14:07:57.016Z,89.90
2018-09-12T14:10:25.537Z,89.60
2018-09-12T14:12:55.125Z,89.60
2018-09-12T14:15:24.261Z,89.80
2018-09-12T14:17:52.958Z,90.00
2018-09-12T14:20:21.480Z,90.10
2018-09-12T14:22:50.084Z,89.90
2018-09-12T14:25:29.756Z,89.40
2018-09-12T14:27:58.300Z,90.00
2018-09-12T14:30:26.817Z,90.30
2018-09-12T14:32:56.325Z,90.30
2018-09-12T14:35:24.710Z,90.30
2018-09-12T14:40:36.886Z,90.00
2018-09-12T14:43:06.630Z,89.10
2018-09-12T14:45:35.290Z,89.10
2018-09-12T14:48:03.781Z,89.40
2018-09-12T14:50:32.256Z,89.10
2018-09-12T14:53:01.057Z,89.50
2018-09-12T14:55:29.884Z,87.00
2018-09-12T14:57:58.613Z,87.20
2018-09-12T15:00:29.159Z,87.90
2018-09-12T15:02:59.053Z,86.60
2018-09-12T15:05:28.655Z,87.60
2018-09-12T15:07:57.604Z,86.90
2018-09-12T15:10:26.584Z,87.10
2018-09-12T15:12:54.975Z,88.60
2018-09-12T15:15:23.477Z,87.50
2018-09-12T15:17:51.988Z,88.00
2018-09-12T15:20:28.982Z,88.00
2018-09-12T15:22:57.641Z,88.50
2018-09-12T15:25:29.232Z,89.00
2018-09-12T15:27:58.859Z,89.40
2018-09-12T15:30:28.808Z,89.70
2018-09-12T15:32:59.309Z,88.90
2018-09-12T15:35:29.143Z,89.30
2018-09-12T15:38:04.088Z,89.40
2018-09-12T15:40:46.864Z,88.90
2018-09-12T15:43:15.542Z,88.80
2018-09-12T15:45:47.036Z,88.50
2018-09-12T15:48:29.169Z,88.50
2018-09-12T15:50:57.748Z,87.80
2018-09-12T15:53:26.369Z,88.20
2018-09-12T15:55:54.826Z,88.20
2018-09-12T15:58:23.480Z,88.60
2018-09-12T16:00:52.820Z,88.70
2018-09-12T16:03:22.882Z,87.90
2018-09-12T16:05:51.488Z,88.20
2018-09-12T16:08:20.077Z,88.60
2018-09-12T16:10:48.613Z,88.20
2018-09-12T16:13:17.598Z,88.20
2018-09-12T16:15:47.403Z,87.70
2018-09-12T16:18:15.914Z,89.30
2018-09-12T16:20:48.004Z,90.20
2018-09-12T16:23:24.008Z,89.90
2018-09-12T16:25:52.616Z,89.20
2018-09-12T16:28:21.087Z,88.60
2018-09-12T16:30:49.711Z,88.40
2018-09-12T16:33:18.241Z,88.30
2018-09-12T16:35:46.718Z,88.30
2018-09-12T16:38:15.241Z,88.30
2018-09-12T16:40:43.783Z,87.80
2018-09-12T16:43:12.350Z,88.20
2018-09-12T16:45:40.978Z,88.00
2018-09-12T16:48:09.627Z,88.20
2018-09-12T16:50:38.232Z,88.20
2018-09-12T16:56:03.799Z,87.00
2018-09-12T16:58:32.221Z,87.30
2018-09-12T17:01:00.740Z,87.00
2018-09-12T17:03:29.429Z,86.60
2018-09-12T17:06:00.598Z,86.70
2018-09-12T17:08:29.123Z,86.50
2018-09-12T17:10:57.693Z,86.50
2018-09-12T17:13:26.382Z,86.30
2018-09-12T17:15:56.273Z,87.10
2018-09-12T17:18:24.795Z,87.50
2018-09-12T17:20:53.410Z,86.70
2018-09-12T17:23:21.888Z,86.00
2018-09-12T17:25:50.422Z,86.70
2018-09-12T17:28:30.697Z,85.80
2018-09-12T17:31:04.543Z,85.80
2018-09-12T17:33:33.249Z,85.70
2018-09-12T17:36:02.839Z,85.70
2018-09-12T17:38:32.707Z,85.50
2018-09-12T17:41:01.894Z,85.60
2018-09-12T17:43:32.653Z,86.00
2018-09-12T17:46:01.170Z,85.60
2018-09-12T17:48:31.942Z,85.70
2018-09-12T17:51:03.253Z,85.70
2018-09-12T17:53:32.541Z,85.60
2018-09-12T17:56:02.228Z,85.60
2018-09-12T17:58:31.601Z,85.60
2018-09-12T18:01:00.397Z,85.50
2018-09-12T18:03:30.866Z,85.40
2018-09-12T18:05:59.589Z,85.40
2018-09-12T18:08:28.920Z,85.60
2018-09-12T18:11:02.827Z,85.60
2018-09-12T18:13:31.240Z,85.80
2018-09-12T18:16:00.233Z,85.50
2018-09-12T18:18:30.255Z,85.90
2018-09-12T18:20:58.847Z,86.10
2018-09-12T18:23:28.607Z,86.00
2018-09-12T18:25:57.145Z,86.20
2018-09-12T18:28:30.059Z,87.00
2018-09-12T18:30:58.747Z,88.20
2018-09-12T18:33:31.500Z,88.80
2018-09-12T18:36:00.185Z,88.60
2018-09-12T18:38:28.969Z,88.80
2018-09-12T18:41:00.125Z,88.40
2018-09-12T18:43:36.517Z,88.70
2018-09-12T18:46:09.892Z,88.00
2018-09-12T18:48:39.778Z,87.60
2018-09-12T18:51:10.553Z,87.30
2018-09-12T18:53:41.361Z,87.50
2018-09-12T18:56:11.764Z,88.00
2018-09-12T18:58:41.941Z,88.50
2018-09-12T19:01:12.211Z,88.70
2018-09-12T19:03:45.805Z,88.70
2018-09-12T19:06:18.544Z,89.60
2018-09-12T19:08:48.818Z,89.40
2018-09-12T19:11:19.049Z,90.00
2018-09-12T19:13:49.393Z,90.00
2018-09-12T19:16:19.421Z,90.30
2018-09-12T19:18:50.168Z,90.50
2018-09-12T19:21:20.761Z,90.30
2018-09-12T19:23:50.741Z,90.60
2018-09-12T19:26:20.777Z,90.60
2018-09-12T19:28:50.583Z,90.70
2018-09-12T19:31:20.422Z,90.80
2018-09-12T19:33:50.625Z,90.90
2018-09-12T19:36:20.241Z,91.00
2018-09-12T19:38:50.155Z,91.00
2018-09-12T19:41:19.920Z,90.90
2018-09-12T19:43:49.272Z,91.00
2018-09-12T19:46:18.514Z,91.00
2018-09-12T19:48:47.300Z,91.00
2018-09-12T19:51:17.010Z,91.10
2018-09-12T19:53:46.062Z,91.10
2018-09-12T19:56:15.299Z,91.30
2018-09-12T19:58:44.926Z,91.20
2018-09-12T20:01:13.512Z,91.20
2018-09-12T20:03:42.081Z,91.20
2018-09-12T20:06:10.503Z,91.20
2018-09-12T20:08:39.512Z,91.20
2018-09-12T20:11:08.033Z,91.10
2018-09-12T20:13:36.556Z,91.20
2018-09-12T20:16:08.498Z,91.10
2018-09-12T20:18:39.664Z,91.00
2018-09-12T20:21:09.717Z,91.30
2018-09-12T20:23:39.578Z,91.50
2018-09-12T20:26:14.420Z,91.40
2018-09-12T20:28:47.297Z,91.40
2018-09-12T20:31:16.700Z,91.20
2018-09-12T20:33:45.621Z,91.30
2018-09-12T20:36:14.109Z,91.30
2018-09-12T20:38:42.693Z,91.00
2018-09-12T20:41:11.192Z,91.10
2018-09-12T20:43:39.695Z,91.10
2018-09-12T20:46:08.175Z,91.60
2018-09-12T20:48:39.456Z,91.00
2018-09-12T20:51:07.944Z,91.30
2018-09-12T20:53:38.057Z,91.20
2018-09-12T20:56:06.598Z,91.00
2018-09-12T20:58:35.021Z,90.90
2018-09-12T21:01:03.724Z,91.00
2018-09-12T21:03:32.232Z,91.10
2018-09-12T21:06:00.695Z,91.30
2018-09-12T21:08:29.224Z,91.10
2018-09-12T21:10:57.783Z,91.20
2018-09-12T21:13:26.206Z,91.00
2018-09-12T21:15:54.744Z,91.00
2018-09-12T21:18:23.258Z,91.20
2018-09-12T21:20:51.720Z,90.70
2018-09-12T21:23:20.474Z,91.20
2018-09-12T21:25:48.870Z,91.30
2018-09-12T21:28:17.401Z,91.30
2018-09-12T21:30:46.184Z,91.30
2018-09-12T21:33:14.717Z,91.20
2018-09-12T21:35:43.188Z,91.20
2018-09-12T21:38:11.705Z,91.10
2018-09-12T21:40:40.187Z,91.00
2018-09-12T21:43:08.771Z,91.10
2018-09-12T21:45:37.253Z,91.20
2018-09-12T21:48:06.174Z,91.10
2018-09-12T21:50:34.673Z,91.10
2018-09-12T21:53:03.124Z,91.20
2018-09-12T21:55:39.374Z,91.10
2018-09-12T21:58:07.965Z,91.00
2018-09-12T22:00:38.605Z,91.20
2018-09-12T22:03:07.226Z,91.10
2018-09-12T22:05:35.681Z,90.80
2018-09-12T22:08:04.196Z,91.10
2018-09-12T22:10:37.763Z,91.20
2018-09-12T22:13:10.407Z,91.20
2018-09-12T22:15:40.449Z,91.20
2018-09-12T22:18:08.898Z,91.10
2018-09-12T22:20:38.361Z,91.30
2018-09-12T22:23:06.934Z,90.80
2018-09-12T22:25:35.394Z,91.30
2018-09-12T22:28:03.801Z,91.20
2018-09-12T22:30:32.329Z,90.70
2018-09-12T22:33:02.587Z,90.70
2018-09-12T22:35:41.822Z,90.80
2018-09-12T22:38:10.451Z,90.70
2018-09-12T22:40:38.916Z,91.00
2018-09-12T22:43:07.392Z,90.90
2018-09-12T22:45:35.952Z,90.90
2018-09-12T22:48:04.384Z,91.00
2018-09-12T22:50:32.936Z,90.60
2018-09-12T22:53:01.369Z,91.00
2018-09-12T22:55:29.778Z,90.50
2018-09-12T22:57:58.131Z,90.70
2018-09-12T23:00:26.583Z,91.00
2018-09-12T23:02:55.105Z,90.50
2018-09-12T23:05:23.608Z,90.80
2018-09-12T23:07:52.106Z,90.70
2018-09-12T23:10:20.530Z,90.90
2018-09-12T23:12:49.028Z,91.00
2018-09-12T23:15:21.988Z,90.80
2018-09-12T23:17:50.585Z,91.20
2018-09-12T23:20:19.141Z,90.80
2018-09-12T23:22:47.805Z,90.90
2018-09-12T23:25:16.297Z,90.90
2018-09-12T23:27:44.865Z,91.00
2018-09-12T23:30:13.389Z,90.80
2018-09-12T23:32:41.983Z,91.00
2018-09-12T23:35:10.632Z,90.60
2018-09-12T23:37:39.128Z,90.50
2018-09-12T23:40:07.524Z,90.60
2018-09-12T23:42:36.046Z,90.90
2018-09-12T23:45:04.795Z,90.70
2018-09-12T23:47:33.360Z,90.60
2018-09-12T23:50:01.865Z,90.70
2018-09-12T23:52:30.337Z,91.10
2018-09-12T23:54:58.871Z,90.90
2018-09-12T23:57:27.420Z,90.70
2018-09-12T23:59:56.068Z,90.80
